Time;durP1;ratioP1;P1;durP2;ratioP2;P2;SDS_P1;SDS_P2;PMS_P1;PMS_P2;Temp;Humidity;BMP_temperature;BMP_pressure;BME280_temperature;BME280_humidity;BME280_pressure;Samples;Min_cycle;Max_cycle;Signal;HPM_P1;HPM_P2
2022/01/20 00:00:19;;;;;;;13.10;4.70;;;;;;;4.73;96.03;100630.72;6113257;23;20037;-76
2022/01/20 00:02:46;;;;;;;11.68;4.30;;;;;;;4.76;95.88;100634.16;6114717;23;20016;-76
2022/01/20 00:26:53;;;;;;;15.30;3.70;;;;;;;4.72;95.26;100652.84;6141319;23;20049;-76
2022/01/20 00:29:25;;;;;;;13.88;4.05;;;;;;;4.68;95.55;100655.75;6112573;23;20005;-75
2022/01/20 00:32:09;;;;;;;13.88;3.67;;;;;;;4.68;95.24;100648.66;6112855;23;20006;-76
2022/01/20 00:37:21;;;;;;;18.88;4.20;;;;;;;4.72;95.14;100634.28;6140397;23;20016;-76
2022/01/20 00:39:47;;;;;;;14.40;3.28;;;;;;;4.69;94.61;100641.56;6112472;23;20012;-75
2022/01/20 00:42:16;;;;;;;14.63;3.33;;;;;;;4.68;94.96;100650.44;6112161;23;20010;-75
2022/01/20 00:44:44;;;;;;;;;;;;;;;4.63;94.60;100652.47;6112490;23;20041;-76
2022/01/20 00:47:10;;;;;;;15.50;3.90;;;;;;;4.62;94.95;100643.69;6111607;23;20229;-76
2022/01/20 00:49:36;;;;;;;12.45;3.33;;;;;;;4.67;94.51;100646.94;6111984;23;20009;-75
2022/01/20 00:52:02;;;;;;;18.45;3.40;;;;;;;4.68;94.91;100664.53;6112331;23;20045;-76
2022/01/20 00:54:30;;;;;;;17.45;3.35;;;;;;;4.66;94.90;100665.56;6112783;23;19997;-76
2022/01/20 00:56:56;;;;;;;10.93;3.17;;;;;;;4.66;95.11;100661.13;6112059;23;20501;-76
2022/01/20 00:59:21;;;;;;;12.13;3.30;;;;;;;4.65;94.90;100663.84;6111394;23;20009;-76
2022/01/20 01:01:50;;;;;;;16.02;3.53;;;;;;;4.63;95.10;100669.22;6111768;23;20016;-75
2022/01/20 01:04:16;;;;;;;13.15;3.08;;;;;;;4.59;94.56;100672.13;6111155;23;20024;-76
2022/01/20 01:09:10;;;;;;;15.27;3.33;;;;;;;4.58;94.84;100663.31;6136888;23;20056;-75
2022/01/20 01:11:37;;;;;;;11.18;3.20;;;;;;;4.57;94.54;100664.25;6112260;23;20799;-75
2022/01/20 01:14:04;;;;;;;16.38;3.88;;;;;;;4.58;94.90;100665.13;6111349;23;20021;-76
2022/01/20 01:20:03;;;;;;;14.43;3.10;;;;;;;4.60;94.70;100666.75;6110368;23;20069;-76
2022/01/20 01:24:41;;;;;;;10.50;2.80;;;;;;;4.53;94.29;100668.03;6138316;23;20032;-75
2022/01/20 01:27:08;;;;;;;13.25;3.65;;;;;;;4.53;94.38;100672.47;6112044;23;20065;-76
2022/01/20 01:32:05;;;;;;;15.40;4.18;;;;;;;4.51;94.10;100677.84;6136592;23;20020;-76
2022/01/20 01:34:31;;;;;;;14.50;3.47;;;;;;;4.52;94.11;100673.41;6111730;23;20036;-75
2022/01/20 01:39:25;;;;;;;12.43;3.37;;;;;;;4.52;93.89;100698.09;6137800;23;20061;-76
2022/01/20 01:41:53;;;;;;;14.30;3.40;;;;;;;4.55;93.79;100689.13;6111659;23;20240;-75
2022/01/20 01:44:27;;;;;;;14.05;3.70;;;;;;;4.59;93.90;100683.56;6111654;23;20068;-77
2022/01/20 01:46:54;;;;;;;14.15;3.40;;;;;;;4.55;94.03;100694.41;6137700;23;19997;-76
2022/01/20 01:49:22;;;;;;;11.68;3.45;;;;;;;4.56;94.07;100693.47;6110469;23;20068;-77
2022/01/20 01:51:47;;;;;;;15.00;3.73;;;;;;;4.55;94.11;100687.31;6112181;23;20043;-77
2022/01/20 01:54:15;;;;;;;8.98;2.78;;;;;;;4.55;93.71;100682.03;6111730;23;20005;-75
2022/01/20 01:56:41;;;;;;;11.52;3.30;;;;;;;4.52;93.65;100668.09;6110077;23;20020;-76
2022/01/20 01:59:08;;;;;;;12.73;3.22;;;;;;;4.50;93.49;100668.19;6111475;23;20018;-75
2022/01/20 02:01:38;;;;;;;11.45;3.13;;;;;;;4.50;93.79;100672.63;6110123;23;20032;-77
2022/01/20 02:04:16;;;;;;;11.30;3.25;;;;;;;4.50;93.34;100678.78;6110862;23;20307;-75
2022/01/20 02:17:51;;;;;;;11.40;3.45;;;;;;;4.49;94.04;100695.59;6140370;23;20144;-76
2022/01/20 02:17:58;;;;;;;13.63;2.88;;;;;;;4.40;93.47;100678.41;6139794;23;20056;-76
2022/01/20 02:20:24;;;;;;;12.52;3.05;;;;;;;4.39;93.46;100666.09;6113809;23;20029;-75
2022/01/20 02:22:52;;;;;;;15.07;3.38;;;;;;;4.42;93.70;100684.47;6111958;23;20009;-74
2022/01/20 02:25:22;;;;;;;14.68;2.95;;;;;;;4.38;92.92;100682.94;6112222;23;20437;-76
2022/01/20 02:27:48;;;;;;;12.13;2.65;;;;;;;4.41;93.21;100682.78;6111787;23;20009;-76
2022/01/20 02:30:17;;;;;;;13.38;2.92;;;;;;;4.46;92.85;100679.88;6111719;23;20037;-75
2022/01/20 02:32:43;;;;;;;13.60;2.65;;;;;;;4.47;93.18;100686.88;6111218;23;20008;-75
2022/01/20 02:35:11;;;;;;;15.82;3.10;;;;;;;4.52;92.75;100679.53;6110871;23;20010;-76
2022/01/20 02:37:37;;;;;;;14.07;2.90;;;;;;;4.53;92.78;100675.97;6112070;23;20013;-75
2022/01/20 02:45:13;;;;;;;13.25;2.67;;;;;;;4.53;93.31;100675.09;6139721;23;20028;-76
2022/01/20 02:47:39;;;;;;;12.73;2.63;;;;;;;4.56;92.62;100681.09;6111051;23;20638;-76
2022/01/20 02:50:05;;;;;;;11.75;2.42;;;;;;;4.56;93.06;100691.69;6111246;23;20012;-75
2022/01/20 02:52:30;;;;;;;12.20;2.47;;;;;;;4.57;93.00;100705.78;6111873;23;20009;-76
2022/01/20 02:54:57;;;;;;;13.27;2.85;;;;;;;4.51;93.03;100708.75;6111495;23;20329;-77
2022/01/20 02:57:24;;;;;;;8.05;2.45;;;;;;;4.46;92.91;100705.50;6111682;23;20710;-76
2022/01/20 02:59:52;;;;;;;11.50;2.33;;;;;;;4.49;93.32;100700.03;6111712;23;20056;-76
2022/01/20 03:02:20;;;;;;;12.50;2.70;;;;;;;4.44;93.10;100695.00;6108206;23;20302;-75
2022/01/20 03:04:49;;;;;;;11.52;2.38;;;;;;;4.37;93.05;100699.75;6107714;23;20869;-76
2022/01/20 03:07:15;;;;;;;11.85;2.40;;;;;;;4.35;93.46;100683.09;6112368;23;20001;-76
2022/01/20 03:09:41;;;;;;;13.55;2.33;;;;;;;4.39;93.19;100694.38;6110642;23;20060;-76
2022/01/20 03:12:07;;;;;;;11.88;2.42;;;;;;;4.46;93.25;100686.97;6111803;23;20006;-76
2022/01/20 03:14:32;;;;;;;7.15;2.25;;;;;;;4.48;93.32;100682.44;6111349;23;20020;-76
2022/01/20 03:16:58;;;;;;;11.68;2.15;;;;;;;4.46;92.97;100687.81;6111062;23;20026;-77
2022/01/20 03:19:24;;;;;;;13.50;2.45;;;;;;;4.40;92.74;100672.25;6135370;23;20048;-75
2022/01/20 03:21:53;;;;;;;8.90;2.03;;;;;;;4.43;92.94;100678.25;6110812;23;20070;-76
2022/01/20 03:24:19;;;;;;;10.68;2.13;;;;;;;4.45;93.05;100679.97;6110620;23;20013;-75
2022/01/20 03:26:47;;;;;;;10.63;2.08;;;;;;;4.42;93.25;100683.63;6111225;23;20008;-76
2022/01/20 03:29:13;;;;;;;10.77;2.40;;;;;;;4.38;93.20;100682.06;6111681;23;20006;-76
2022/01/20 03:31:39;;;;;;;8.93;1.90;;;;;;;4.43;93.37;100674.75;6109403;23;20314;-77
2022/01/20 03:34:08;;;;;;;9.52;1.63;;;;;;;4.41;93.10;100685.41;6110339;23;20010;-76
2022/01/20 03:36:34;;;;;;;10.13;1.77;;;;;;;4.44;93.11;100676.47;6110128;23;20452;-76
2022/01/20 03:39:00;;;;;;;9.13;1.88;;;;;;;4.43;92.63;100680.03;6112056;23;20338;-75
2022/01/20 03:41:26;;;;;;;7.70;2.08;;;;;;;4.42;93.00;100678.34;6113109;23;20014;-75
2022/01/20 03:43:51;;;;;;;7.63;1.75;;;;;;;4.40;93.04;100677.56;6113409;23;20178;-76
2022/01/20 03:46:17;;;;;;;9.85;1.83;;;;;;;4.38;92.69;100679.44;6112700;23;20009;-76
2022/01/20 03:48:51;;;;;;;9.18;1.92;;;;;;;4.40;92.55;100672.25;6112832;23;20013;-75
2022/01/20 03:51:21;;;;;;;8.07;1.80;;;;;;;4.38;92.31;100668.84;6113792;23;20009;-76
2022/01/20 03:53:48;;;;;;;9.75;1.80;;;;;;;4.37;92.62;100667.97;6114100;23;20360;-76
2022/01/20 03:56:13;;;;;;;10.65;2.13;;;;;;;4.40;92.13;100659.88;6112511;23;20093;-76
2022/01/20 03:58:40;;;;;;;9.82;2.13;;;;;;;4.41;92.32;100661.59;6112973;23;19997;-75
2022/01/20 04:01:05;;;;;;;6.82;1.77;;;;;;;4.45;92.65;100664.06;6112089;23;20020;-76
2022/01/20 04:03:35;;;;;;;11.40;1.95;;;;;;;4.45;92.20;100653.47;6113158;23;20005;-76
2022/01/20 04:06:01;;;;;;;10.20;2.08;;;;;;;4.47;92.41;100654.25;6112443;23;20866;-76
2022/01/20 04:08:31;;;;;;;8.30;1.85;;;;;;;4.49;92.34;100658.53;6112604;23;20001;-76
2022/01/20 04:10:59;;;;;;;9.45;2.08;;;;;;;4.48;92.65;100661.25;6112622;23;20001;-76
2022/01/20 04:13:29;;;;;;;8.65;1.95;;;;;;;4.49;92.52;100653.22;6112228;23;20095;-76
2022/01/20 04:15:55;;;;;;;6.80;2.00;;;;;;;4.52;92.73;100661.00;6113208;23;20029;-76
2022/01/20 04:18:25;;;;;;;10.32;2.20;;;;;;;4.53;92.64;100646.84;6112280;23;20024;-76
2022/01/20 04:20:51;;;;;;;6.93;2.00;;;;;;;4.48;92.54;100663.91;6112207;23;20017;-76
2022/01/20 04:23:16;;;;;;;12.07;2.10;;;;;;;4.35;92.55;100663.72;6112833;23;20314;-77
2022/01/20 04:25:42;;;;;;;12.25;2.00;;;;;;;4.38;93.01;100668.84;6112431;23;20016;-75
2022/01/20 04:28:08;;;;;;;8.38;2.13;;;;;;;4.42;93.01;100658.00;6112845;23;20021;-77
2022/01/20 04:30:33;;;;;;;11.02;2.20;;;;;;;4.39;92.96;100668.75;6112219;23;20009;-76
2022/01/20 04:32:59;;;;;;;9.45;2.83;;;;;;;4.37;92.84;100669.78;6111814;23;20041;-76
2022/01/20 04:35:25;;;;;;;10.32;2.50;;;;;;;4.32;92.64;100672.66;6111718;23;20040;-77
2022/01/20 04:37:52;;;;;;;10.35;2.70;;;;;;;4.34;93.36;100669.94;6112500;23;20009;-77
2022/01/20 04:40:19;;;;;;;10.38;2.10;;;;;;;4.35;92.79;100661.91;6112348;23;20013;-77
2022/01/20 04:42:47;;;;;;;7.35;2.53;;;;;;;4.36;92.80;100668.91;6112848;23;20005;-77
2022/01/20 04:45:19;;;;;;;6.75;2.15;;;;;;;4.37;92.79;100675.94;6113244;23;20005;-75
2022/01/20 04:47:56;;;;;;;8.43;2.53;;;;;;;4.37;92.37;100665.34;6113477;23;20036;-76
2022/01/20 04:58:37;;;;;;;8.50;2.17;;;;;;;4.30;92.76;100663.94;6140960;23;20024;-75
2022/01/20 05:01:03;;;;;;;8.57;2.35;;;;;;;4.31;92.85;100678.03;6111091;23;20013;-76
2022/01/20 05:03:29;;;;;;;8.75;2.22;;;;;;;4.25;92.30;100676.53;6111952;23;20017;-76
2022/01/20 05:05:55;;;;;;;8.85;2.10;;;;;;;4.28;92.62;100678.22;6111159;23;20062;-76
2022/01/20 05:08:25;;;;;;;11.50;2.40;;;;;;;4.27;92.74;100679.16;6112567;23;20732;-75
2022/01/20 05:10:52;;;;;;;8.52;2.20;;;;;;;4.25;92.60;100676.53;6112469;23;20356;-76
2022/01/20 05:13:23;;;;;;;10.23;2.25;;;;;;;4.24;92.50;100673.97;6112395;23;20085;-76
2022/01/20 05:15:49;;;;;;;7.50;1.70;;;;;;;4.26;92.50;100677.44;6113236;23;20017;-76
2022/01/20 05:18:15;;;;;;;9.20;2.00;;;;;;;4.27;92.28;100684.44;6111739;23;20044;-77
2022/01/20 05:20:40;;;;;;;8.23;2.03;;;;;;;4.26;92.54;100680.09;6111057;23;20017;-76
2022/01/20 05:23:06;;;;;;;7.85;1.85;;;;;;;4.29;92.47;100685.22;6112172;23;20032;-76
2022/01/20 05:25:31;;;;;;;12.70;2.00;;;;;;;4.31;92.35;100681.53;6112275;23;20001;-77
2022/01/20 05:27:57;;;;;;;6.90;1.80;;;;;;;4.30;92.09;100682.47;6111832;23;20005;-76
2022/01/20 05:30:22;;;;;;;6.53;1.58;;;;;;;4.30;92.39;100682.47;6111453;23;20010;-76
2022/01/20 05:32:50;;;;;;;7.38;1.50;;;;;;;4.29;92.05;100682.56;6111327;23;20009;-76
2022/01/20 05:35:16;;;;;;;7.60;2.10;;;;;;;4.30;91.83;100689.56;6111314;23;20005;-75
2022/01/20 05:37:41;;;;;;;10.18;1.65;;;;;;;4.27;91.76;100685.28;6111130;23;20037;-77
2022/01/20 05:40:07;;;;;;;5.40;1.63;;;;;;;4.32;91.88;100677.97;6111380;23;20088;-76
2022/01/20 05:42:36;;;;;;;11.68;2.38;;;;;;;4.29;92.08;100686.06;6111347;23;20453;-76
2022/01/20 05:45:05;;;;;;;5.50;1.70;;;;;;;4.26;91.51;100688.88;6112311;23;20010;-76
2022/01/20 05:47:32;;;;;;;6.65;1.60;;;;;;;4.20;92.03;100697.09;6111297;23;20008;-76
2022/01/20 05:49:57;;;;;;;6.90;1.85;;;;;;;4.21;92.13;100701.47;6111258;23;20014;-75
2022/01/20 05:52:23;;;;;;;10.15;1.75;;;;;;;4.16;92.31;100705.28;6111705;23;20087;-76
2022/01/20 05:54:49;;;;;;;4.75;1.38;;;;;;;4.13;92.08;100706.28;6111633;23;20213;-77
2022/01/20 05:57:14;;;;;;;6.85;1.73;;;;;;;4.20;92.47;100702.41;6111641;23;20013;-77
2022/01/20 05:59:40;;;;;;;6.18;1.27;;;;;;;4.25;92.51;100704.81;6112331;23;20032;-75
2022/01/20 06:02:29;;;;;;;5.40;1.42;;;;;;;4.19;92.09;100708.63;6110995;23;20036;-77
2022/01/20 06:04:54;;;;;;;8.65;2.30;;;;;;;4.19;92.85;100703.34;6111226;23;20383;-76
2022/01/20 06:07:21;;;;;;;5.93;1.52;;;;;;;4.17;92.47;100710.50;6081868;23;20078;-76
2022/01/20 06:09:46;;;;;;;5.40;2.00;;;;;;;4.18;92.54;100709.56;6082648;23;20005;-77
2022/01/20 06:12:12;;;;;;;8.05;1.40;;;;;;;4.19;92.62;100719.22;6082213;23;20002;-75
2022/01/20 06:14:38;;;;;;;5.68;1.95;;;;;;;4.09;92.55;100718.84;6082597;23;20010;-76
2022/01/20 06:17:04;;;;;;;9.30;1.90;;;;;;;4.04;93.23;100712.91;6081891;23;20060;-76
2022/01/20 06:19:30;;;;;;;10.60;1.95;;;;;;;4.00;92.91;100721.09;6082277;23;20073;-75
2022/01/20 06:21:55;;;;;;;6.97;2.08;;;;;;;3.88;93.19;100721.72;6082843;23;20033;-76
2022/01/20 06:24:20;;;;;;;8.07;1.70;;;;;;;3.94;93.49;100726.69;6082241;23;20033;-76
2022/01/20 06:26:46;;;;;;;9.35;1.88;;;;;;;3.91;93.81;100726.84;6082876;23;20002;-75
2022/01/20 06:29:11;;;;;;;5.75;1.55;;;;;;;3.85;93.46;100735.94;6082590;23;20002;-76
2022/01/20 06:31:37;;;;;;;10.63;2.40;;;;;;;3.80;93.68;100740.63;6082488;23;20421;-77
2022/01/20 06:34:03;;;;;;;5.38;2.00;;;;;;;3.79;93.90;100731.81;6083248;23;20025;-75
2022/01/20 06:36:29;;;;;;;10.48;2.42;;;;;;;3.79;93.97;100752.13;6082237;23;20013;-75
2022/01/20 06:38:55;;;;;;;8.18;1.98;;;;;;;3.81;94.22;100752.91;6082771;23;20021;-76
2022/01/20 06:41:20;;;;;;;8.93;1.90;;;;;;;3.82;94.44;100751.97;6082477;23;20014;-75
2022/01/20 06:43:45;;;;;;;7.93;1.80;;;;;;;3.83;94.57;100753.69;6083014;23;20093;-75
2022/01/20 06:46:14;;;;;;;8.50;2.00;;;;;;;3.87;94.33;100767.63;6082446;23;20006;-75
2022/01/20 06:48:40;;;;;;;6.95;2.00;;;;;;;3.91;94.55;100772.69;6082491;23;19998;-75
2022/01/20 06:51:08;;;;;;;5.93;2.35;;;;;;;3.87;94.49;100780.84;6081263;23;20016;-77
2022/01/20 06:53:33;;;;;;;6.93;2.20;;;;;;;3.84;94.63;100787.16;6082370;23;20020;-76
2022/01/20 06:55:59;;;;;;;8.68;2.55;;;;;;;3.85;94.59;100794.16;6082032;23;20010;-76
2022/01/20 06:58:27;;;;;;;7.25;2.65;;;;;;;3.87;94.94;100788.78;6081980;23;20006;-76
2022/01/20 07:00:52;;;;;;;7.18;2.60;;;;;;;3.81;94.80;100797.88;6080856;23;20006;-77
2022/01/20 07:03:18;;;;;;;8.43;3.05;;;;;;;3.77;95.42;100807.72;6082142;23;20037;-76
2022/01/20 07:05:44;;;;;;;6.47;2.13;;;;;;;3.72;95.09;100815.03;6128682;23;20037;-75
2022/01/20 07:08:10;;;;;;;9.07;3.03;;;;;;;3.65;95.47;100813.59;6110729;23;20034;-76
2022/01/20 07:10:35;;;;;;;11.57;3.47;;;;;;;3.67;95.53;100817.03;6111424;23;20033;-75
2022/01/20 07:13:00;;;;;;;8.27;2.72;;;;;;;3.66;95.43;100822.38;6110814;23;20096;-76
2022/01/20 07:15:26;;;;;;;7.25;2.47;;;;;;;3.67;95.77;100845.25;6111762;23;20006;-75
2022/01/20 07:17:51;;;;;;;11.48;3.60;;;;;;;3.74;96.26;100844.03;6113218;23;20036;-75
2022/01/20 07:20:17;;;;;;;7.88;2.00;;;;;;;3.62;95.68;100853.41;6113376;23;20017;-75
2022/01/20 07:22:43;;;;;;;6.28;1.90;;;;;;;3.60;96.11;100862.34;6113574;23;20036;-75
2022/01/20 07:25:08;;;;;;;7.10;1.85;;;;;;;3.58;96.04;100874.78;6113032;23;20024;-74
2022/01/20 07:27:34;;;;;;;6.78;1.83;;;;;;;3.52;95.99;100885.66;6113199;23;20073;-75
2022/01/20 07:29:59;;;;;;;6.43;2.50;;;;;;;3.31;95.89;100896.28;6112914;23;20009;-76
2022/01/20 07:32:24;;;;;;;7.88;2.10;;;;;;;3.31;96.03;100903.31;6113086;23;20532;-75
2022/01/20 07:34:50;;;;;;;7.57;1.80;;;;;;;3.26;96.21;100890.31;6113396;23;20049;-75
2022/01/20 07:37:15;;;;;;;5.35;1.88;;;;;;;3.25;95.89;100890.38;6137889;23;20021;-74
2022/01/20 07:39:41;;;;;;;6.97;1.90;;;;;;;3.31;96.29;100885.69;6113431;23;20041;-75
2022/01/20 07:42:07;;;;;;;6.90;1.60;;;;;;;3.32;96.09;100884.78;6112861;23;20041;-76
2022/01/20 07:44:32;;;;;;;9.95;2.00;;;;;;;3.37;95.70;100884.56;6113124;23;20013;-75
2022/01/20 07:46:58;;;;;;;11.73;1.70;;;;;;;3.30;95.38;100897.16;6113096;23;20021;-74
2022/01/20 07:49:23;;;;;;;7.43;1.90;;;;;;;3.32;95.11;100892.69;6113179;23;20057;-74
2022/01/20 07:51:48;;;;;;;8.20;1.88;;;;;;;3.33;95.05;100885.63;6113457;23;20006;-75
2022/01/20 07:54:14;;;;;;;10.63;2.63;;;;;;;3.41;94.81;100889.63;6112461;23;20354;-75
2022/01/20 07:56:39;;;;;;;13.68;3.35;;;;;;;3.45;94.41;100891.22;6111717;23;20005;-76
2022/01/20 07:59:06;;;;;;;10.50;2.03;;;;;;;3.46;93.96;100906.16;6113122;23;20013;-75
2022/01/20 08:01:33;;;;;;;14.07;2.13;;;;;;;3.48;93.91;100906.94;6138038;23;20019;-75
2022/01/20 08:03:58;;;;;;;9.18;2.33;;;;;;;3.43;93.70;100911.56;6137104;23;20182;-74
2022/01/20 08:06:25;;;;;;;7.43;1.58;;;;;;;3.53;93.99;100919.09;6089052;23;20032;-76
2022/01/20 08:08:50;;;;;;;7.07;1.88;;;;;;;3.58;93.64;100919.72;6112771;23;20006;-75
2022/01/20 08:11:17;;;;;;;10.23;2.10;;;;;;;3.64;93.63;100924.75;6113139;23;20033;-75
2022/01/20 08:13:42;;;;;;;5.40;1.23;;;;;;;3.57;93.45;100926.81;6113063;23;20036;-75
2022/01/20 08:16:08;;;;;;;9.25;2.33;;;;;;;3.58;93.21;100933.81;6113188;23;20505;-75
2022/01/20 08:18:34;;;;;;;8.48;1.90;;;;;;;3.55;93.39;100919.88;6112684;23;20065;-74
2022/01/20 08:20:59;;;;;;;8.93;2.10;;;;;;;3.57;93.35;100918.88;6111817;23;20009;-75
2022/01/20 08:23:25;;;;;;;11.43;1.90;;;;;;;3.61;93.38;100919.59;6111715;23;20028;-75
2022/01/20 08:25:50;;;;;;;9.35;2.30;;;;;;;3.55;93.07;100925.16;6112169;23;20065;-76
2022/01/20 08:28:17;;;;;;;11.55;2.20;;;;;;;3.58;93.21;100917.09;6112160;23;20033;-75
2022/01/20 08:30:43;;;;;;;10.23;2.03;;;;;;;3.57;93.16;100918.03;6113120;23;20014;-76
2022/01/20 08:33:08;;;;;;;8.35;2.13;;;;;;;3.53;92.91;100927.88;6111274;23;20484;-75
2022/01/20 08:35:34;;;;;;;15.32;4.88;;;;;;;3.64;93.04;100920.31;6111134;23;20025;-76
2022/01/20 08:38:01;;;;;;;6.97;1.58;;;;;;;3.64;92.92;100928.25;6135383;23;20006;-74
2022/01/20 08:40:27;;;;;;;8.95;1.58;;;;;;;3.62;92.71;100922.16;6111776;23;20020;-75
2022/01/20 08:42:54;;;;;;;12.02;2.25;;;;;;;3.61;92.76;100922.25;6111907;23;20009;-75
2022/01/20 08:45:23;;;;;;;7.75;1.63;;;;;;;3.61;92.42;100928.38;6112091;23;20251;-76
2022/01/20 08:47:52;;;;;;;11.80;2.35;;;;;;;3.59;92.96;100924.94;6112028;23;20041;-75
2022/01/20 08:50:18;;;;;;;10.65;2.20;;;;;;;3.60;92.44;100944.31;6111743;23;20013;-76
2022/01/20 08:52:43;;;;;;;11.23;2.00;;;;;;;3.64;92.51;100937.97;6112154;23;20009;-76
2022/01/20 08:55:09;;;;;;;11.32;1.73;;;;;;;3.69;92.35;100939.47;6111987;23;20010;-75
2022/01/20 08:57:34;;;;;;;12.20;2.03;;;;;;;3.70;92.29;100943.84;6111454;23;20037;-76
2022/01/20 08:59:59;;;;;;;10.40;1.83;;;;;;;3.75;92.14;100948.91;6112158;23;20338;-75
2022/01/20 09:02:25;;;;;;;9.43;2.15;;;;;;;3.78;92.26;100959.34;6112192;23;20092;-74
2022/01/20 09:04:51;;;;;;;11.05;1.98;;;;;;;3.74;91.66;100960.41;6111270;23;20033;-75
2022/01/20 09:07:17;;;;;;;9.25;1.90;;;;;;;3.64;91.76;100961.75;6110947;23;20045;-76
2022/01/20 09:09:46;;;;;;;9.20;2.00;;;;;;;3.60;91.75;100968.13;6136509;23;20005;-76
2022/01/20 09:17:23;;;;;;;15.63;2.30;;;;;;;3.68;91.84;100979.22;6140231;23;20015;-75
2022/01/20 09:19:49;;;;;;;11.30;1.73;;;;;;;3.67;91.99;100975.72;6110924;23;20009;-76
2022/01/20 09:22:15;;;;;;;9.73;1.75;;;;;;;3.79;92.00;100977.81;6110648;23;20020;-75
2022/01/20 09:24:40;;;;;;;12.35;2.38;;;;;;;3.78;91.68;100977.88;6110077;23;20077;-75
2022/01/20 09:27:06;;;;;;;7.50;2.05;;;;;;;3.78;91.63;100993.72;6111083;23;20054;-75
2022/01/20 09:29:32;;;;;;;6.90;1.77;;;;;;;3.80;91.83;100994.56;6111719;23;20009;-75
2022/01/20 09:31:59;;;;;;;12.50;2.58;;;;;;;3.74;91.77;100985.09;6110963;23;20021;-75
2022/01/20 09:34:24;;;;;;;9.65;1.67;;;;;;;3.76;91.57;100983.22;6111678;23;20006;-75
2022/01/20 09:36:51;;;;;;;10.32;2.13;;;;;;;3.81;91.54;100985.69;6110509;23;20029;-75
2022/01/20 09:39:16;;;;;;;9.18;1.85;;;;;;;3.85;90.68;100983.75;6111932;23;20017;-75
2022/01/20 09:41:45;;;;;;;7.70;1.83;;;;;;;3.90;90.68;100979.97;6111354;23;20543;-76
2022/01/20 09:44:10;;;;;;;15.10;2.10;;;;;;;3.89;90.66;100986.19;6112048;23;20017;-75
2022/01/20 09:46:36;;;;;;;7.10;1.92;;;;;;;3.87;90.69;100987.19;6111667;23;20121;-75
2022/01/20 09:49:01;;;;;;;10.32;2.20;;;;;;;3.81;90.17;100992.78;6111215;23;20036;-75
2022/01/20 09:51:27;;;;;;;8.45;1.90;;;;;;;3.83;89.89;100993.56;6110615;23;20690;-77
2022/01/20 09:53:52;;;;;;;8.10;2.20;;;;;;;3.86;89.96;101007.50;6111085;23;20008;-75
2022/01/20 09:56:22;;;;;;;13.90;2.80;;;;;;;3.87;90.02;101006.56;6111506;23;20013;-76
2022/01/20 09:58:48;;;;;;;7.53;2.15;;;;;;;3.83;90.00;101012.94;6111340;23;20040;-75
2022/01/20 10:01:15;;;;;;;8.90;1.92;;;;;;;3.87;89.88;101021.59;6111280;23;20113;-76
2022/01/20 10:03:46;;;;;;;14.10;2.65;;;;;;;3.94;89.26;101020.38;6111302;23;20009;-75
2022/01/20 10:06:11;;;;;;;9.88;2.47;;;;;;;3.96;89.36;101024.69;6109958;23;20045;-76
2022/01/20 10:08:36;;;;;;;14.68;3.10;;;;;;;3.95;88.89;101028.25;6110536;23;20024;-76
2022/01/20 10:11:07;;;;;;;13.43;3.70;;;;;;;3.95;88.91;101033.53;6111941;23;20375;-75
2022/01/20 10:13:37;;;;;;;12.02;2.83;;;;;;;3.95;89.42;101030.03;6112435;23;20017;-76
2022/01/20 10:16:10;;;;;;;9.43;1.73;;;;;;;4.01;89.61;101027.09;6111725;23;20013;-74
2022/01/20 10:18:45;;;;;;;9.80;2.25;;;;;;;3.90;89.50;101030.25;6111877;23;20041;-76
2022/01/20 10:21:10;;;;;;;11.93;2.72;;;;;;;3.94;89.35;101044.19;6136104;23;20013;-75
2022/01/20 10:23:40;;;;;;;7.22;2.45;;;;;;;3.93;89.44;101048.63;6111804;23;20016;-74
2022/01/20 10:26:14;;;;;;;11.52;2.80;;;;;;;3.97;89.82;101031.69;6112335;23;20017;-76
2022/01/20 10:29:08;;;;;;;10.63;2.20;;;;;;;3.97;89.59;101041.41;6136556;23;20002;-75
2022/01/20 10:31:40;;;;;;;10.10;2.25;;;;;;;3.97;90.01;101044.06;6106481;23;20017;-75
2022/01/20 10:34:18;;;;;;;10.77;2.38;;;;;;;3.98;89.51;101057.22;6112234;23;20021;-75
2022/01/20 10:36:56;;;;;;;12.52;2.90;;;;;;;3.99;89.79;101053.63;6111776;23;20085;-77
2022/01/20 10:39:34;;;;;;;16.58;3.00;;;;;;;3.89;89.82;101051.47;6111457;23;20076;-74
2022/01/20 10:42:04;;;;;;;12.55;3.20;;;;;;;3.97;89.55;101052.00;6111025;23;20448;-74
2022/01/20 10:44:49;;;;;;;10.95;2.88;;;;;;;3.98;89.30;101059.00;6111203;23;20009;-75
2022/01/20 10:47:23;;;;;;;9.32;2.28;;;;;;;4.00;89.38;101063.28;6111831;23;20004;-76
2022/01/20 10:49:49;;;;;;;8.57;2.03;;;;;;;3.98;89.99;101062.50;6112446;23;20009;-74
2022/01/20 10:52:18;;;;;;;12.15;2.17;;;;;;;3.99;89.91;101058.06;6138184;23;20010;-75
2022/01/20 10:54:50;;;;;;;9.35;2.15;;;;;;;4.04;89.77;101062.22;6113684;23;20062;-75
2022/01/20 10:57:16;;;;;;;10.60;2.92;;;;;;;4.12;89.54;101056.59;6113251;23;20006;-74
2022/01/20 11:00:02;;;;;;;12.30;2.72;;;;;;;4.10;89.57;101054.00;6113552;23;20006;-75
2022/01/20 11:02:29;;;;;;;11.60;2.25;;;;;;;4.09;88.33;101059.38;6138256;23;20009;-75
2022/01/20 11:04:56;;;;;;;10.25;3.00;;;;;;;4.08;88.88;101057.66;6112322;23;20109;-74
2022/01/20 11:07:22;;;;;;;8.18;3.20;;;;;;;4.12;89.49;101053.94;6136873;23;20714;-74
2022/01/20 11:09:54;;;;;;;11.45;2.65;;;;;;;4.20;89.16;101048.28;6113227;23;20017;-74
2022/01/20 11:12:20;;;;;;;11.43;2.78;;;;;;;4.17;88.95;101051.94;6114516;23;20016;-75
2022/01/20 11:14:47;;;;;;;9.23;2.80;;;;;;;4.27;89.11;101042.66;6137954;23;20009;-75
2022/01/20 11:17:34;;;;;;;13.27;2.28;;;;;;;4.23;89.18;101053.44;6113364;23;20005;-74
2022/01/20 11:20:24;;;;;;;13.80;3.15;;;;;;;4.12;88.16;101056.59;6137547;23;20117;-74
2022/01/20 11:23:05;;;;;;;10.60;2.13;;;;;;;4.08;87.71;101060.31;6113712;23;20033;-75
2022/01/20 11:25:36;;;;;;;7.63;2.20;;;;;;;4.15;87.56;101055.59;6112426;23;20006;-74
2022/01/20 11:28:12;;;;;;;7.65;1.98;;;;;;;4.13;87.69;101060.94;6113278;23;20064;-75
2022/01/20 11:31:48;;;;;;;8.38;2.05;;;;;;;4.18;87.47;101048.38;5150679;27;20475;-75
2022/01/20 11:34:16;;;;;;;11.32;2.28;;;;;;;4.25;87.65;101060.38;5095517;28;20039;-75
2022/01/20 11:36:41;;;;;;;12.30;1.90;;;;;;;4.26;87.42;101064.78;5095002;27;20042;-75
2022/01/20 11:39:07;;;;;;;11.15;3.72;;;;;;;4.16;86.69;101062.59;5095680;27;20024;-75
2022/01/20 11:41:49;;;;;;;11.88;2.53;;;;;;;4.06;85.17;101057.72;5093396;27;20133;-74
2022/01/20 11:44:18;;;;;;;14.30;1.92;;;;;;;3.99;83.77;101064.22;5102459;27;20047;-75
2022/01/20 11:46:45;;;;;;;8.80;3.85;;;;;;;3.91;82.14;101060.22;5094335;28;20032;-75
2022/01/20 11:49:15;;;;;;;9.23;2.28;;;;;;;3.95;82.41;101062.66;5092711;28;20043;-75
2022/01/20 11:51:45;;;;;;;10.25;2.38;;;;;;;4.03;82.04;101063.16;5093689;28;21005;-74
2022/01/20 11:54:13;;;;;;;8.68;2.50;;;;;;;4.09;81.41;101078.75;5096966;27;20057;-75
2022/01/20 11:56:41;;;;;;;9.30;1.88;;;;;;;4.21;81.46;101079.13;5093452;27;20086;-75
2022/01/20 11:59:10;;;;;;;7.78;1.85;;;;;;;4.32;80.69;101074.22;5093924;27;20093;-77
2022/01/20 12:01:49;;;;;;;6.63;1.80;;;;;;;4.22;79.44;101079.06;5093071;27;20076;-77
2022/01/20 12:04:15;;;;;;;6.78;1.90;;;;;;;4.13;78.53;101081.25;5094617;27;20034;-77
2022/01/20 12:06:47;;;;;;;7.18;1.70;;;;;;;4.08;77.47;101062.94;5099588;27;20042;-77
2022/01/20 12:09:14;;;;;;;7.65;1.70;;;;;;;4.05;77.22;101063.94;5098980;27;20031;-77
2022/01/20 12:11:45;;;;;;;7.05;1.67;;;;;;;4.06;75.99;101055.09;5095089;27;20043;-77
2022/01/20 12:14:11;;;;;;;7.35;1.50;;;;;;;4.13;75.57;101044.22;5097322;27;20028;-77
2022/01/20 12:16:38;;;;;;;7.70;1.67;;;;;;;4.16;75.32;101044.94;5090393;27;20035;-77
2022/01/20 12:19:08;;;;;;;10.10;1.83;;;;;;;4.13;75.37;101046.84;5091467;27;20035;-77
2022/01/20 12:21:34;;;;;;;9.32;2.17;;;;;;;4.10;75.09;101042.56;5091409;27;21061;-77
2022/01/20 12:24:00;;;;;;;6.70;1.42;;;;;;;4.17;76.08;101037.84;5091123;27;20031;-77
2022/01/20 12:26:26;;;;;;;11.27;2.63;;;;;;;4.23;76.86;101034.91;5093806;27;20028;-77
2022/01/20 12:29:07;;;;;;;5.68;1.77;;;;;;;4.21;77.42;101036.78;5108927;27;20043;-77
2022/01/20 12:31:48;;;;;;;8.85;1.92;;;;;;;4.13;76.47;101046.84;5097195;27;20055;-77
2022/01/20 12:34:13;;;;;;;9.95;2.08;;;;;;;4.14;77.15;101044.13;5093343;28;21810;-78
2022/01/20 12:36:39;;;;;;;8.32;1.70;;;;;;;4.06;76.51;101044.50;5089773;27;20028;-77